createdAt,value
2022-10-05T00:00:27.511Z,9.383091
2022-10-05T00:01:27.521Z,9.383408
2022-10-05T00:02:27.497Z,9.383065
2022-10-05T00:03:27.482Z,9.382924
2022-10-05T00:04:27.467Z,9.383007
2022-10-05T00:05:28.461Z,9.382975
2022-10-05T00:06:27.454Z,9.383006
2022-10-05T00:07:27.451Z,9.383068
2022-10-05T00:08:27.425Z,9.383095
2022-10-05T00:09:27.458Z,9.383094
2022-10-05T00:10:27.404Z,9.383157
2022-10-05T00:11:27.395Z,9.383092
2022-10-05T00:12:27.454Z,9.383109
2022-10-05T00:13:27.370Z,9.383067
2022-10-05T00:14:27.376Z,9.383090
2022-10-05T00:15:27.349Z,9.383040
2022-10-05T00:16:27.393Z,9.383099
2022-10-05T00:17:27.345Z,9.383118
2022-10-05T00:18:27.318Z,9.383083
2022-10-05T00:19:27.311Z,9.382981
2022-10-05T00:20:27.300Z,9.382951
2022-10-05T00:21:27.287Z,9.383101
2022-10-05T00:22:27.288Z,9.383072
2022-10-05T00:23:27.265Z,9.383073
2022-10-05T00:24:27.260Z,9.383071
2022-10-05T00:25:27.259Z,9.383123
2022-10-05T00:26:27.239Z,9.383084
2022-10-05T00:27:27.236Z,9.383089
2022-10-05T00:28:27.274Z,9.383126
2022-10-05T00:29:27.204Z,9.383134
2022-10-05T00:30:27.193Z,9.383157
2022-10-05T00:31:27.319Z,9.383129
2022-10-05T00:32:27.182Z,9.383121
2022-10-05T00:33:27.215Z,9.383085
2022-10-05T00:34:27.157Z,9.383086
2022-10-05T00:35:27.139Z,9.383107
2022-10-05T00:36:27.132Z,9.383098
2022-10-05T00:37:27.136Z,9.383084
2022-10-05T00:38:27.116Z,9.383075
2022-10-05T00:39:27.098Z,9.383074
2022-10-05T00:40:27.085Z,9.383087
2022-10-05T00:41:27.080Z,9.383069
2022-10-05T00:42:27.082Z,9.383064
2022-10-05T00:43:27.060Z,9.383074
2022-10-05T00:44:27.045Z,9.383053
2022-10-05T00:45:27.062Z,9.383074
2022-10-05T00:46:27.045Z,9.383098
2022-10-05T00:47:28.020Z,9.383040
2022-10-05T00:48:26.998Z,9.383047
2022-10-05T00:49:27.009Z,9.383035
2022-10-05T00:50:26.977Z,9.383075
2022-10-05T00:51:26.972Z,9.383080
2022-10-05T00:52:26.968Z,9.383059
2022-10-05T00:53:26.945Z,9.383142
2022-10-05T00:54:26.933Z,9.383109
2022-10-05T00:55:26.922Z,9.383075
2022-10-05T00:56:26.908Z,9.383092
2022-10-05T00:57:26.907Z,9.383093
2022-10-05T00:58:26.891Z,9.383075
2022-10-05T00:59:26.882Z,9.383068
2022-10-05T01:00:26.872Z,9.383013
2022-10-05T01:01:26.908Z,9.383063
2022-10-05T01:02:26.950Z,9.383077
2022-10-05T01:03:26.841Z,9.383123
2022-10-05T01:04:26.825Z,9.383009
2022-10-05T01:05:26.820Z,9.383109
2022-10-05T01:06:26.809Z,9.383086
2022-10-05T01:07:26.814Z,9.383048
2022-10-05T01:08:26.794Z,9.383023
2022-10-05T01:09:26.798Z,9.383068
2022-10-05T01:10:26.771Z,9.383095
2022-10-05T01:11:26.760Z,9.383063
2022-10-05T01:12:26.766Z,9.383118
2022-10-05T01:13:26.734Z,9.383089
2022-10-05T01:14:26.726Z,9.383075
2022-10-05T01:15:26.707Z,9.383100
2022-10-05T01:16:27.771Z,9.383136
2022-10-05T01:17:26.716Z,9.383142
2022-10-05T01:18:26.687Z,9.383017
2022-10-05T01:19:26.694Z,9.383075
2022-10-05T01:20:26.668Z,9.383063
2022-10-05T01:21:26.655Z,9.383123
2022-10-05T01:22:26.642Z,9.383114
2022-10-05T01:23:26.653Z,9.383092
2022-10-05T01:24:26.645Z,9.383138
2022-10-05T01:25:26.623Z,9.383088
2022-10-05T01:26:26.600Z,9.383020
2022-10-05T01:27:26.596Z,9.383106
2022-10-05T01:28:26.669Z,9.383120
2022-10-05T01:29:26.568Z,9.383141
2022-10-05T01:30:26.569Z,9.383064
2022-10-05T01:31:26.577Z,9.383050
2022-10-05T01:32:26.548Z,9.383063
2022-10-05T01:33:26.547Z,9.383094
2022-10-05T01:34:26.522Z,9.383134
2022-10-05T01:35:26.520Z,9.383074
2022-10-05T01:36:26.539Z,9.383128
2022-10-05T01:37:26.502Z,9.383060
2022-10-05T01:38:26.482Z,9.383108
2022-10-05T01:39:26.476Z,9.383096
2022-10-05T01:40:26.461Z,9.383094
2022-10-05T01:41:26.473Z,9.383138
2022-10-05T01:42:26.459Z,9.383058
2022-10-05T01:43:26.430Z,9.382977
2022-10-05T01:44:26.441Z,9.383017
2022-10-05T01:45:26.583Z,9.383077
2022-10-05T01:46:26.430Z,9.383129
2022-10-05T01:47:26.410Z,9.383071
2022-10-05T01:48:26.409Z,9.383110
2022-10-05T01:49:26.393Z,9.383105
2022-10-05T01:50:26.356Z,9.383054
2022-10-05T01:51:26.448Z,9.383076
2022-10-05T01:52:26.346Z,9.383029
2022-10-05T01:53:26.324Z,9.383093
2022-10-05T01:54:26.348Z,9.383101
2022-10-05T01:55:26.338Z,9.383080
2022-10-05T01:56:26.302Z,9.383101
2022-10-05T01:57:26.337Z,9.383093
2022-10-05T01:58:26.277Z,9.383106
2022-10-05T01:59:26.259Z,9.383082
2022-10-05T02:00:26.256Z,9.383121
2022-10-05T02:01:26.325Z,9.383134
2022-10-05T02:02:26.297Z,9.383107
2022-10-05T02:03:26.213Z,9.383082
2022-10-05T02:04:59.858Z,9.383102
2022-10-05T02:05:28.198Z,9.383113
2022-10-05T02:06:26.192Z,9.383125
2022-10-05T02:07:26.200Z,9.383101
2022-10-05T02:08:26.174Z,9.383099
2022-10-05T02:09:26.165Z,9.383061
2022-10-05T02:10:26.151Z,9.383076
2022-10-05T02:11:26.145Z,9.382996
2022-10-05T02:12:26.148Z,9.383122
2022-10-05T02:13:26.150Z,9.383093
2022-10-05T02:14:26.113Z,9.383019
2022-10-05T02:15:26.102Z,9.383135
2022-10-05T02:16:26.139Z,9.383130
2022-10-05T02:17:26.095Z,9.383090
2022-10-05T02:18:26.081Z,9.383044
2022-10-05T02:19:26.060Z,9.383062
2022-10-05T02:20:26.065Z,9.383049
2022-10-05T02:21:26.042Z,9.383001
2022-10-05T02:22:26.029Z,9.383018
2022-10-05T02:23:26.086Z,9.383056
2022-10-05T02:24:26.012Z,9.383051
2022-10-05T02:25:26.000Z,9.383063
2022-10-05T02:26:25.990Z,9.382982
2022-10-05T02:27:25.974Z,9.383078
2022-10-05T02:28:26.015Z,9.383064
2022-10-05T02:29:25.959Z,9.383149
2022-10-05T02:30:25.960Z,9.383107
2022-10-05T02:31:26.014Z,9.383149
2022-10-05T02:32:25.933Z,9.383015
2022-10-05T02:33:25.929Z,9.383101
2022-10-05T02:34:25.904Z,9.383092
2022-10-05T02:35:25.901Z,9.383039
2022-10-05T02:36:25.889Z,9.383065
2022-10-05T02:37:25.907Z,9.383086
2022-10-05T02:38:26.063Z,9.383078
2022-10-05T02:39:25.853Z,9.383030
2022-10-05T02:40:25.841Z,9.383021
2022-10-05T02:41:25.834Z,9.383031
2022-10-05T02:42:25.826Z,9.383007
2022-10-05T02:43:25.831Z,9.383050
2022-10-05T02:44:25.806Z,9.383021
2022-10-05T02:45:25.818Z,9.383032
2022-10-05T02:46:26.846Z,9.383069
2022-10-05T02:47:25.779Z,9.383153
2022-10-05T02:48:25.787Z,9.383065
2022-10-05T02:49:25.757Z,9.383101
2022-10-05T02:50:25.741Z,9.383118
2022-10-05T02:51:25.739Z,9.383017
2022-10-05T02:52:25.726Z,9.383053
2022-10-05T02:53:25.730Z,9.382966
2022-10-05T02:54:25.708Z,9.383087
2022-10-05T02:55:25.691Z,9.382990
2022-10-05T02:56:25.681Z,9.383203
2022-10-05T02:57:25.672Z,9.383263
2022-10-05T02:58:25.685Z,9.383172
2022-10-05T02:59:25.667Z,9.383125
2022-10-05T03:00:25.641Z,9.382996
2022-10-05T03:01:25.686Z,9.382851
2022-10-05T03:02:25.807Z,9.382841
2022-10-05T03:03:25.617Z,9.383017
2022-10-05T03:04:25.596Z,9.383051
2022-10-05T03:05:25.586Z,9.383031
2022-10-05T03:06:25.579Z,9.383105
2022-10-05T03:07:25.566Z,9.383118
2022-10-05T03:08:25.567Z,9.383055
2022-10-05T03:09:25.543Z,9.383079
2022-10-05T03:10:25.536Z,9.383099
2022-10-05T03:11:25.525Z,9.382997
2022-10-05T03:12:25.549Z,9.383039
2022-10-05T03:13:25.514Z,9.383040
2022-10-05T03:14:25.490Z,9.383030
2022-10-05T03:15:25.491Z,9.383014
2022-10-05T03:16:25.557Z,9.383089
2022-10-05T03:17:25.478Z,9.383088
2022-10-05T03:18:29.936Z,9.383031
2022-10-05T03:19:27.447Z,9.383058
2022-10-05T03:20:25.439Z,9.383055
2022-10-05T03:21:25.432Z,9.383039
2022-10-05T03:22:25.422Z,9.383045
2022-10-05T03:23:25.418Z,9.383069
2022-10-05T03:24:25.398Z,9.383058
2022-10-05T03:25:25.388Z,9.383009
2022-10-05T03:26:25.377Z,9.383022
2022-10-05T03:27:25.365Z,9.383073
2022-10-05T03:28:25.470Z,9.383082
2022-10-05T03:29:25.355Z,9.383059
2022-10-05T03:30:25.334Z,9.383024
2022-10-05T03:31:25.368Z,9.382992
2022-10-05T03:32:25.312Z,9.383017
2022-10-05T03:33:25.318Z,9.382998
2022-10-05T03:34:25.288Z,9.383067
2022-10-05T03:35:25.325Z,9.383153
2022-10-05T03:36:25.269Z,9.383186
2022-10-05T03:37:25.258Z,9.383082
2022-10-05T03:38:25.268Z,9.383136
2022-10-05T03:39:25.242Z,9.382984
2022-10-05T03:40:25.229Z,9.383031
2022-10-05T03:41:25.222Z,9.383031
2022-10-05T03:42:25.212Z,9.383060
2022-10-05T03:43:25.215Z,9.383124
2022-10-05T03:44:25.194Z,9.383108
2022-10-05T03:45:25.181Z,9.383151
2022-10-05T03:46:25.182Z,9.383091
2022-10-05T03:47:25.162Z,9.383045
2022-10-05T03:48:25.166Z,9.382997
2022-10-05T03:49:25.143Z,9.382973
2022-10-05T03:50:25.129Z,9.383030
2022-10-05T03:51:25.119Z,9.383041
2022-10-05T03:52:25.116Z,9.383066
2022-10-05T03:53:25.116Z,9.383137
2022-10-05T03:54:25.089Z,9.383102
2022-10-05T03:55:25.088Z,9.383104
2022-10-05T03:56:25.074Z,9.383064
2022-10-05T03:57:25.060Z,9.383146
2022-10-05T03:58:25.171Z,9.383062
2022-10-05T03:59:28.813Z,9.383104
2022-10-05T04:00:26.023Z,9.383011
2022-10-05T04:01:25.069Z,9.383165
2022-10-05T04:02:25.046Z,9.383067
2022-10-05T04:03:25.005Z,9.383080
2022-10-05T04:04:24.990Z,9.383202
2022-10-05T04:05:24.979Z,9.383102
2022-10-05T04:06:25.016Z,9.383076
2022-10-05T04:07:24.961Z,9.383058
2022-10-05T04:08:24.960Z,9.383116
2022-10-05T04:09:24.934Z,9.383126
2022-10-05T04:10:24.929Z,9.383091
2022-10-05T04:11:24.914Z,9.382940
2022-10-05T04:12:24.908Z,9.383080
2022-10-05T04:13:24.917Z,9.383015
2022-10-05T04:14:24.898Z,9.383017
2022-10-05T04:15:24.881Z,9.383050
2022-10-05T04:16:24.908Z,9.383093
2022-10-05T04:17:24.862Z,9.383113
2022-10-05T04:18:24.865Z,9.383059
2022-10-05T04:19:24.842Z,9.383074
2022-10-05T04:20:24.836Z,9.383014
2022-10-05T04:21:24.842Z,9.383018
2022-10-05T04:22:24.821Z,9.383062
2022-10-05T04:23:24.813Z,9.383089
2022-10-05T04:24:24.793Z,9.383125
2022-10-05T04:25:24.781Z,9.383098
2022-10-05T04:26:24.774Z,9.383116
2022-10-05T04:27:24.765Z,9.383089
2022-10-05T04:28:28.295Z,9.383062
2022-10-05T04:29:26.744Z,9.383110
2022-10-05T04:30:24.732Z,9.383115
2022-10-05T04:31:24.770Z,9.383045
2022-10-05T04:32:24.713Z,9.383085
2022-10-05T04:33:24.712Z,9.383095
2022-10-05T04:34:24.695Z,9.383085
2022-10-05T04:35:24.685Z,9.383053
2022-10-05T04:36:24.669Z,9.383125
2022-10-05T04:37:24.675Z,9.383056
2022-10-05T04:38:24.664Z,9.383065
2022-10-05T04:39:24.638Z,9.383115
2022-10-05T04:40:24.636Z,9.383162
2022-10-05T04:41:24.646Z,9.383062
2022-10-05T04:42:24.610Z,9.383102
2022-10-05T04:43:24.614Z,9.383104
2022-10-05T04:44:24.587Z,9.383013
2022-10-05T04:45:24.588Z,9.383084
2022-10-05T04:46:24.616Z,9.383063
2022-10-05T04:47:24.564Z,9.383094
2022-10-05T04:48:24.566Z,9.383081
2022-10-05T04:49:24.565Z,9.383099
2022-10-05T04:50:24.535Z,9.383016
2022-10-05T04:51:24.525Z,9.382992
2022-10-05T04:52:24.521Z,9.383064
2022-10-05T04:53:24.557Z,9.383000
2022-10-05T04:54:24.501Z,9.383065
2022-10-05T04:55:24.490Z,9.383120
2022-10-05T04:56:24.473Z,9.383132
2022-10-05T04:57:24.464Z,9.383056
2022-10-05T04:58:24.473Z,9.383052
2022-10-05T04:59:24.478Z,9.383017
2022-10-05T05:00:24.442Z,9.383080
2022-10-05T05:01:24.504Z,9.383106
2022-10-05T05:02:24.427Z,9.383136
2022-10-05T05:03:24.489Z,9.383087
2022-10-05T05:04:24.402Z,9.383058
2022-10-05T05:05:24.391Z,9.382977
2022-10-05T05:06:24.382Z,9.383106
2022-10-05T05:07:24.373Z,9.383160
2022-10-05T05:08:24.376Z,9.383111
2022-10-05T05:09:24.352Z,9.383171
2022-10-05T05:10:24.343Z,9.383213
2022-10-05T05:11:24.783Z,9.383088
2022-10-05T05:12:25.319Z,9.383086
2022-10-05T05:13:24.338Z,9.383136
2022-10-05T05:14:24.304Z,9.383169
2022-10-05T05:15:24.293Z,9.383184
2022-10-05T05:16:24.346Z,9.383073
2022-10-05T05:17:25.274Z,9.383069
2022-10-05T05:18:24.275Z,9.383081
2022-10-05T05:19:24.252Z,9.383074
2022-10-05T05:20:24.280Z,9.383064
2022-10-05T05:21:24.229Z,9.383057
2022-10-05T05:22:24.215Z,9.383112
2022-10-05T05:23:25.223Z,9.383119
2022-10-05T05:24:24.210Z,9.383060
2022-10-05T05:25:24.184Z,9.382980
2022-10-05T05:26:25.184Z,9.383072
2022-10-05T05:27:24.173Z,9.383110
2022-10-05T05:28:24.254Z,9.383015
2022-10-05T05:29:24.195Z,9.383036
2022-10-05T05:30:24.142Z,9.383055
2022-10-05T05:31:24.285Z,9.383074
2022-10-05T05:32:24.138Z,9.383064
2022-10-05T05:33:24.115Z,9.383098
2022-10-05T05:34:24.100Z,9.383211
2022-10-05T05:35:24.089Z,9.383166
2022-10-05T05:36:24.084Z,9.383227
2022-10-05T05:37:24.091Z,9.383230
2022-10-05T05:38:24.064Z,9.383090
2022-10-05T05:39:24.054Z,9.383154
2022-10-05T05:40:24.042Z,9.383071
2022-10-05T05:41:24.034Z,9.383101
2022-10-05T05:42:24.019Z,9.383039
2022-10-05T05:43:24.015Z,9.382957
2022-10-05T05:44:24.000Z,9.382921
2022-10-05T05:45:23.991Z,9.383076
2022-10-05T05:46:38.776Z,9.383079
2022-10-05T05:47:26.002Z,9.383051
2022-10-05T05:48:23.971Z,9.382986
2022-10-05T05:49:23.953Z,9.383110
2022-10-05T05:50:23.942Z,9.383182
2022-10-05T05:51:23.964Z,9.383112
2022-10-05T05:52:23.925Z,9.383039
2022-10-05T05:53:23.912Z,9.383091
2022-10-05T05:54:24.902Z,9.383140
2022-10-05T05:55:29.021Z,9.383205
2022-10-05T05:56:25.888Z,9.383180
2022-10-05T05:57:23.873Z,9.383189
2022-10-05T05:58:23.874Z,9.383169
2022-10-05T05:59:23.853Z,9.382983
2022-10-05T06:00:23.847Z,9.382984
2022-10-05T06:01:32.788Z,9.382977
2022-10-05T06:02:25.888Z,9.383007
2022-10-05T06:03:23.973Z,9.383026
2022-10-05T06:04:23.800Z,9.383159
2022-10-05T06:05:23.794Z,9.383101
2022-10-05T06:06:23.784Z,9.383037
2022-10-05T06:07:28.046Z,9.383014
2022-10-05T06:08:25.780Z,9.383047
2022-10-05T06:09:23.759Z,9.383027
2022-10-05T06:10:23.744Z,9.383068
2022-10-05T06:11:23.771Z,9.383041
2022-10-05T06:12:23.722Z,9.383004
2022-10-05T06:13:23.727Z,9.383040
2022-10-05T06:14:23.701Z,9.382977
2022-10-05T06:15:23.695Z,9.383061
2022-10-05T06:16:23.708Z,9.383076
2022-10-05T06:17:23.675Z,9.383075
2022-10-05T06:18:23.674Z,9.383067
2022-10-05T06:19:23.652Z,9.383081
2022-10-05T06:20:23.637Z,9.383117
2022-10-05T06:21:23.633Z,9.383076
2022-10-05T06:22:23.631Z,9.383074
2022-10-05T06:23:23.622Z,9.383112
2022-10-05T06:24:23.628Z,9.383106
2022-10-05T06:25:23.645Z,9.383091
2022-10-05T06:26:23.589Z,9.383047
2022-10-05T06:27:23.566Z,9.383035
2022-10-05T06:28:23.665Z,9.383136
2022-10-05T06:29:23.660Z,9.383116
2022-10-05T06:30:23.537Z,9.383024
2022-10-05T06:31:23.566Z,9.383088
2022-10-05T06:32:23.527Z,9.383091
2022-10-05T06:33:23.526Z,9.383110
2022-10-05T06:34:23.501Z,9.383111
2022-10-05T06:35:23.530Z,9.383156
2022-10-05T06:36:23.479Z,9.383149
2022-10-05T06:37:23.513Z,9.383151
2022-10-05T06:38:23.487Z,9.383024
2022-10-05T06:39:23.453Z,9.383031
2022-10-05T06:40:23.442Z,9.383041
2022-10-05T06:41:23.434Z,9.383144
2022-10-05T06:42:23.420Z,9.383170
2022-10-05T06:43:24.705Z,9.383142
2022-10-05T06:44:23.403Z,9.383077
2022-10-05T06:45:23.388Z,9.383013
2022-10-05T06:46:23.416Z,9.383075
2022-10-05T06:47:23.364Z,9.383089
2022-10-05T06:48:23.374Z,9.383122
2022-10-05T06:49:23.347Z,9.383132
2022-10-05T06:50:23.339Z,9.383094
2022-10-05T06:51:23.362Z,9.383120
2022-10-05T06:52:23.320Z,9.383114
2022-10-05T06:53:23.314Z,9.383106
2022-10-05T06:54:24.294Z,9.383104
2022-10-05T06:55:23.279Z,9.383065
2022-10-05T06:56:23.279Z,9.383101
2022-10-05T06:57:23.276Z,9.383086
2022-10-05T06:58:23.265Z,9.383107
2022-10-05T06:59:23.246Z,9.383093
2022-10-05T07:00:23.231Z,9.383101
2022-10-05T07:01:23.263Z,9.383126
2022-10-05T07:02:23.262Z,9.383055
2022-10-05T07:03:23.222Z,9.383114
2022-10-05T07:04:23.193Z,9.383064
2022-10-05T07:05:23.172Z,9.383097
2022-10-05T07:06:24.169Z,9.383060
2022-10-05T07:07:23.166Z,9.383080
2022-10-05T07:08:23.161Z,9.383006
2022-10-05T07:09:23.143Z,9.383027
2022-10-05T07:10:23.128Z,9.383085
2022-10-05T07:11:23.230Z,9.383066
2022-10-05T07:12:23.107Z,9.382998
2022-10-05T07:13:23.117Z,9.383045
2022-10-05T07:14:23.128Z,9.383040
2022-10-05T07:15:23.084Z,9.383048
2022-10-05T07:16:23.088Z,9.383086
2022-10-05T07:17:24.067Z,9.383088
2022-10-05T07:18:23.179Z,9.383033
2022-10-05T07:19:23.039Z,9.383040
2022-10-05T07:20:23.033Z,9.383092
2022-10-05T07:21:23.011Z,9.382989
2022-10-05T07:22:23.004Z,9.383067
2022-10-05T07:23:23.001Z,9.383080
2022-10-05T07:24:22.984Z,9.383054
2022-10-05T07:25:22.976Z,9.383104
2022-10-05T07:26:22.966Z,9.383126
2022-10-05T07:27:22.966Z,9.383104
2022-10-05T07:28:23.085Z,9.383081
2022-10-05T07:29:22.928Z,9.383084
2022-10-05T07:30:22.913Z,9.383103
2022-10-05T07:31:22.986Z,9.383084
2022-10-05T07:32:22.897Z,9.383091
2022-10-05T07:33:22.897Z,9.383048
2022-10-05T07:34:22.870Z,9.383068
2022-10-05T07:35:22.871Z,9.383098
2022-10-05T07:36:22.855Z,9.383062
2022-10-05T07:37:22.844Z,9.383015
2022-10-05T07:38:22.847Z,9.383002
2022-10-05T07:39:23.480Z,9.383004
2022-10-05T07:40:23.809Z,9.383003
2022-10-05T07:41:22.798Z,9.382995
2022-10-05T07:42:22.793Z,9.383040
2022-10-05T07:43:22.792Z,9.383044
2022-10-05T07:44:22.772Z,9.383033
2022-10-05T07:45:22.766Z,9.383037
2022-10-05T07:46:22.861Z,9.382959
2022-10-05T07:47:22.740Z,9.383120
2022-10-05T07:48:22.746Z,9.382982
2022-10-05T07:49:22.759Z,9.383016
2022-10-05T07:50:22.781Z,9.383037
2022-10-05T07:51:22.703Z,9.383009
2022-10-05T07:52:22.700Z,9.383025
2022-10-05T07:53:22.691Z,9.382981
2022-10-05T07:54:22.695Z,9.383059
2022-10-05T07:55:22.672Z,9.383020
2022-10-05T07:56:22.652Z,9.383014
2022-10-05T07:57:22.640Z,9.383121
2022-10-05T07:58:22.633Z,9.383030
2022-10-05T07:59:23.627Z,9.383058
2022-10-05T08:00:22.816Z,9.382994
2022-10-05T08:01:22.676Z,9.382997
2022-10-05T08:02:22.723Z,9.383137
2022-10-05T08:03:22.663Z,9.383067
2022-10-05T08:04:22.570Z,9.383100
2022-10-05T08:05:22.554Z,9.383098
2022-10-05T08:06:22.543Z,9.383027
2022-10-05T08:08:22.545Z,9.383002
2022-10-05T08:09:22.531Z,9.383022
2022-10-05T08:10:22.508Z,9.383001
2022-10-05T08:11:22.492Z,9.382986
2022-10-05T08:12:22.504Z,9.383039
2022-10-05T08:13:22.486Z,9.383103
2022-10-05T08:14:22.462Z,9.383062
2022-10-05T08:15:22.460Z,9.383034
2022-10-05T08:16:22.541Z,9.382984
2022-10-05T08:17:25.578Z,9.383031
2022-10-05T08:18:23.435Z,9.383057
2022-10-05T08:19:22.409Z,9.383039
2022-10-05T08:20:22.413Z,9.382965
2022-10-05T08:21:22.388Z,9.382974
2022-10-05T08:22:22.381Z,9.382982
2022-10-05T08:23:22.379Z,9.383030
2022-10-05T08:24:22.354Z,9.382898
2022-10-05T08:25:22.344Z,9.382944
2022-10-05T08:26:22.337Z,9.382998
2022-10-05T08:27:22.327Z,9.383074
2022-10-05T08:28:22.368Z,9.383007
2022-10-05T08:29:22.308Z,9.383006
2022-10-05T08:30:22.299Z,9.382983
2022-10-05T08:31:22.413Z,9.382895
2022-10-05T08:32:22.291Z,9.382973
2022-10-05T08:33:22.277Z,9.382958
2022-10-05T08:34:22.275Z,9.382964
2022-10-05T08:35:22.245Z,9.382993
2022-10-05T08:36:22.246Z,9.383018
2022-10-05T08:37:22.261Z,9.382971
2022-10-05T08:38:22.221Z,9.383005
2022-10-05T08:39:22.205Z,9.382933
2022-10-05T08:40:22.191Z,9.382932
2022-10-05T08:41:22.178Z,9.383012
2022-10-05T08:42:22.167Z,9.383008
2022-10-05T08:43:22.166Z,9.382937
2022-10-05T08:44:22.146Z,9.382793
2022-10-05T08:45:22.135Z,9.382781
2022-10-05T08:46:22.173Z,9.382888
2022-10-05T08:47:22.110Z,9.383025
2022-10-05T08:48:22.114Z,9.383020
2022-10-05T08:49:22.088Z,9.383060
2022-10-05T08:50:22.082Z,9.382949
2022-10-05T08:51:22.068Z,9.382834
2022-10-05T08:52:22.058Z,9.382728
2022-10-05T08:53:22.074Z,9.382848
2022-10-05T08:54:22.041Z,9.382939
2022-10-05T08:55:22.029Z,9.382888
2022-10-05T08:56:26.351Z,9.382877
2022-10-05T08:57:24.028Z,9.382874
2022-10-05T08:58:22.014Z,9.382923
2022-10-05T08:59:21.992Z,9.382880
2022-10-05T09:00:21.984Z,9.382849
2022-10-05T09:01:22.074Z,9.382824
2022-10-05T09:02:21.988Z,9.382894
2022-10-05T09:03:22.960Z,9.382881
2022-10-05T09:04:21.946Z,9.382928
2022-10-05T09:05:21.929Z,9.382850
2022-10-05T09:06:21.922Z,9.382801
2022-10-05T09:07:21.927Z,9.382778
2022-10-05T09:08:21.915Z,9.382854
2022-10-05T09:09:21.883Z,9.382869
2022-10-05T09:10:21.871Z,9.382911
2022-10-05T09:11:21.900Z,9.382969
2022-10-05T09:12:21.854Z,9.383013
2022-10-05T09:13:21.918Z,9.382916
2022-10-05T09:14:21.836Z,9.383165
2022-10-05T09:15:27.161Z,9.383049
2022-10-05T09:16:23.899Z,9.383080
2022-10-05T09:17:21.808Z,9.383072
2022-10-05T09:18:21.811Z,9.383047
2022-10-05T09:19:21.783Z,9.383081
2022-10-05T09:20:21.777Z,9.383082
2022-10-05T09:21:22.769Z,9.383066
2022-10-05T09:22:21.756Z,9.383038
2022-10-05T09:23:21.753Z,9.383085
2022-10-05T09:24:21.755Z,9.383127
2022-10-05T09:25:21.724Z,9.383187
2022-10-05T09:26:21.716Z,9.383107
2022-10-05T09:27:22.706Z,9.383038
2022-10-05T09:28:21.771Z,9.383047
2022-10-05T09:29:21.678Z,9.383154
2022-10-05T09:30:21.671Z,9.383147
2022-10-05T09:31:21.709Z,9.383094
2022-10-05T09:32:21.651Z,9.383079
2022-10-05T09:33:21.648Z,9.383041
2022-10-05T09:34:21.644Z,9.383006
2022-10-05T09:35:21.728Z,9.383125
2022-10-05T09:36:21.602Z,9.383033
2022-10-05T09:37:21.596Z,9.383244
2022-10-05T09:38:21.603Z,9.383108
2022-10-05T09:39:21.577Z,9.383177
2022-10-05T09:40:21.565Z,9.383122
2022-10-05T09:41:21.565Z,9.383136
2022-10-05T09:42:21.553Z,9.383154
2022-10-05T09:43:21.551Z,9.383095
2022-10-05T09:44:21.522Z,9.383106
2022-10-05T09:45:21.747Z,9.383101
2022-10-05T09:46:21.571Z,9.383193
2022-10-05T09:47:21.490Z,9.383115
2022-10-05T09:48:21.492Z,9.383069
2022-10-05T09:49:21.471Z,9.383064
2022-10-05T09:50:21.477Z,9.383069
2022-10-05T09:51:21.470Z,9.383078
2022-10-05T09:52:21.439Z,9.383064
2022-10-05T09:53:21.450Z,9.383103
2022-10-05T09:54:21.424Z,9.383167
2022-10-05T09:55:21.414Z,9.383159
2022-10-05T09:56:21.412Z,9.383136
2022-10-05T09:57:21.397Z,9.383092
2022-10-05T09:58:21.392Z,9.383120
2022-10-05T09:59:21.372Z,9.383078
2022-10-05T10:00:21.364Z,9.383132
2022-10-05T10:01:33.157Z,9.383088
2022-10-05T10:02:23.424Z,9.383076
2022-10-05T10:03:21.446Z,9.383117
2022-10-05T10:04:21.327Z,9.383160
2022-10-05T10:05:21.312Z,9.383129
2022-10-05T10:06:21.305Z,9.383107
2022-10-05T10:07:21.303Z,9.383063
2022-10-05T10:08:21.299Z,9.383095
2022-10-05T10:09:21.273Z,9.383131
2022-10-05T10:10:21.263Z,9.383134
2022-10-05T10:11:21.256Z,9.383084
2022-10-05T10:12:21.246Z,9.383121
2022-10-05T10:13:21.243Z,9.383124
2022-10-05T10:14:21.239Z,9.383093
2022-10-05T10:15:22.209Z,9.383103
2022-10-05T10:16:21.291Z,9.383132
2022-10-05T10:17:21.190Z,9.383119
2022-10-05T10:18:21.190Z,9.383113
2022-10-05T10:19:21.172Z,9.383094
2022-10-05T10:20:21.164Z,9.383120
2022-10-05T10:21:21.148Z,9.383086
2022-10-05T10:22:21.141Z,9.383126
2022-10-05T10:23:21.145Z,9.383136
2022-10-05T10:24:21.120Z,9.383116
2022-10-05T10:25:21.107Z,9.383130
2022-10-05T10:26:21.096Z,9.383153
2022-10-05T10:27:21.090Z,9.383123
2022-10-05T10:28:21.129Z,9.383108
2022-10-05T10:29:21.129Z,9.383110
2022-10-05T10:30:21.882Z,9.383146
2022-10-05T10:31:21.109Z,9.383152
2022-10-05T10:32:21.052Z,9.383060
2022-10-05T10:33:21.039Z,9.383063
2022-10-05T10:34:21.029Z,9.383113
2022-10-05T10:35:21.046Z,9.383076
2022-10-05T10:36:21.000Z,9.383066
2022-10-05T10:37:21.003Z,9.383069
2022-10-05T10:38:20.998Z,9.383105
2022-10-05T10:39:21.034Z,9.383105
2022-10-05T10:40:20.962Z,9.383147
2022-10-05T10:41:20.953Z,9.383142
2022-10-05T10:42:26.000Z,9.383118
2022-10-05T10:43:22.937Z,9.383092
2022-10-05T10:44:20.931Z,9.383117
2022-10-05T10:45:20.905Z,9.383135
2022-10-05T10:46:20.958Z,9.383148
2022-10-05T10:47:20.886Z,9.383153
2022-10-05T10:48:20.885Z,9.383103
2022-10-05T10:49:20.865Z,9.383125
2022-10-05T10:50:20.867Z,9.383107
2022-10-05T10:51:20.843Z,9.383104
2022-10-05T10:52:20.839Z,9.383107
2022-10-05T10:53:20.832Z,9.383153
2022-10-05T10:54:20.819Z,9.383115
2022-10-05T10:55:20.877Z,9.383100
2022-10-05T10:56:20.816Z,9.383114
2022-10-05T10:57:20.793Z,9.383113
2022-10-05T10:58:20.843Z,9.383117
2022-10-05T10:59:20.764Z,9.383143
2022-10-05T11:00:20.754Z,9.383101
2022-10-05T11:01:20.812Z,9.383080
2022-10-05T11:02:20.808Z,9.383109
2022-10-05T11:03:20.734Z,9.383103
2022-10-05T11:04:20.716Z,9.383105
2022-10-05T11:05:20.706Z,9.383108
2022-10-05T11:06:20.717Z,9.383114
2022-10-05T11:07:20.707Z,9.383133
2022-10-05T11:08:20.691Z,9.383182
2022-10-05T11:09:20.671Z,9.383153
2022-10-05T11:10:21.668Z,9.383152
2022-10-05T11:11:20.665Z,9.383161
2022-10-05T11:12:20.642Z,9.383116
2022-10-05T11:13:20.647Z,9.383137
2022-10-05T11:14:20.621Z,9.383125
2022-10-05T11:15:20.613Z,9.383100
2022-10-05T11:16:20.596Z,9.383123
2022-10-05T11:17:20.605Z,9.383112
2022-10-05T11:18:21.781Z,9.383103
2022-10-05T11:19:20.569Z,9.383057
2022-10-05T11:20:20.558Z,9.383104
2022-10-05T11:21:20.548Z,9.383149
2022-10-05T11:22:20.588Z,9.383119
2022-10-05T11:23:20.577Z,9.383135
2022-10-05T11:24:20.517Z,9.383045
2022-10-05T11:25:20.512Z,9.383088
2022-10-05T11:26:20.511Z,9.383084
2022-10-05T11:28:20.565Z,9.383121
2022-10-05T11:29:20.471Z,9.383124
2022-10-05T11:30:20.459Z,9.383099
2022-10-05T11:31:20.551Z,9.383029
2022-10-05T11:32:20.435Z,9.383050
2022-10-05T11:33:20.443Z,9.383071
2022-10-05T11:34:20.418Z,9.383079
2022-10-05T11:35:20.407Z,9.383095
2022-10-05T11:36:20.399Z,9.383127
2022-10-05T11:37:20.393Z,9.383196
2022-10-05T11:38:20.379Z,9.383129
2022-10-05T11:39:20.382Z,9.383155
2022-10-05T11:40:20.531Z,9.383198
2022-10-05T11:41:20.381Z,9.383117
2022-10-05T11:42:20.336Z,9.383138
2022-10-05T11:43:20.367Z,9.383120
2022-10-05T11:44:20.330Z,9.383191
2022-10-05T11:45:20.309Z,9.383133
2022-10-05T11:46:20.347Z,9.383160